Thunder radar more information blitzortung!


avis per Pluja more information rain snow radar


Visita la nostra xarxa de llocs de meteo:

Template documentation
and downloads

And another site



Rain From: 18-10-2018 10:00 Until: 16:59 warning for: Rain Level: Yellow info button

Pagina Historial Weather Underground text

Diari Resum Octubre 18, 2018 Unitats:  Mètric    Imperial   Tant
« Previous Dia
SegĂźent Dia »
Diari Setmana Mensual Anual Personalitzada
  Actual: Maxima: Minima: Media:
Temperatura: -8.2 °C -17.8 °C -10 °C -8.9 °C
Punt de rosada: -9.5 °C -17.8 °C -11.1 °C -10.3 °C
Humitat: 86 % Humidity % 73 % 85 %
Wind Speed: 0 km/h 0 km/h 0 km/h 0 km/h
RĂ fegues de vent: 0 km/h 0 km/h - -
Vent:Calm - - North
Pression baro: 34262.9 hPa 0 hPa 34229.1 hPa -
Precipitacions: 50.8 mm      
Historical Graphs
 
 
Dades de taula per Octubre 18, 2018
Temps Temperatura Punt de rosada Pression baro Vent Wind Speed RĂ fegues de vent Humitat Rainfall Rate (Hourly)
-17.8 °C -17.8 °C 0 hPa Calm     Humidity % 0 mm
00:04 -8.6 °C -9.9 °C 34330.7 hPa Calm     86 % 0 mm
00:09 -8.6 °C -9.9 °C 34330.7 hPa Calm     86 % 0 mm
00:14 -8.7 °C -9.9 °C 34330.7 hPa Calm     86 % 0 mm
00:19 -8.7 °C -10.1 °C 34330.7 hPa Calm     86 % 0 mm
00:24 -8.7 °C -9.9 °C 34330.7 hPa Calm     87 % 0 mm
00:29 -8.7 °C -9.9 °C 34330.7 hPa Calm     87 % 0 mm
00:34 -8.8 °C -10.1 °C 34330.7 hPa Calm     86 % 0 mm
00:39 -8.8 °C -10.1 °C 34330.7 hPa Calm     86 % 0 mm
00:44 -8.8 °C -10.1 °C 34330.7 hPa Calm     86 % 0 mm
00:49 -8.8 °C -9.9 °C 34330.7 hPa Calm     87 % 0 mm
00:54 -8.8 °C -10.1 °C 34330.7 hPa Calm     87 % 0 mm
00:59 -8.8 °C -10.1 °C 34330.7 hPa Calm     87 % 0 mm
01:04 -8.9 °C -10.1 °C 34330.7 hPa Calm     87 % 0 mm
01:09 -8.9 °C -10.1 °C 34330.7 hPa Calm     87 % 0 mm
01:14 -8.9 °C -10 °C 34330.7 hPa Calm     88 % 0 mm
01:19 -8.9 °C -10 °C 34330.7 hPa Calm     88 % 0 mm
01:24 -8.9 °C -10 °C 34330.7 hPa Calm     88 % 0 mm
01:29 -8.9 °C -10 °C 34330.7 hPa Calm     88 % 0 mm
01:34 -8.9 °C -10.1 °C 34330.7 hPa Calm     88 % 0 mm
01:39 -8.9 °C -10 °C 34330.7 hPa Calm     88 % 0 mm
01:44 -8.9 °C -10 °C 34330.7 hPa Calm     88 % 0 mm
01:49 -8.9 °C -10 °C 34330.7 hPa Calm     88 % 0 mm
01:54 -8.9 °C -10.1 °C 34330.7 hPa Calm     88 % 0 mm
01:59 -9 °C -10.1 °C 34296.8 hPa Calm     88 % 0 mm
02:04 -9.1 °C -10.2 °C 34296.8 hPa Calm     88 % 0 mm
02:09 -9.1 °C -10.2 °C 34296.8 hPa Calm     88 % 0 mm
02:14 -9.1 °C -10.2 °C 34262.9 hPa Calm     88 % 0 mm
02:19 -9.1 °C -10.2 °C 34262.9 hPa Calm     88 % 0 mm
02:24 -9.2 °C -10.3 °C 34262.9 hPa Calm     88 % 0 mm
02:29 -9.2 °C -10.3 °C 34262.9 hPa Calm     88 % 0 mm
02:34 -9.2 °C -10.3 °C 34262.9 hPa Calm     88 % 0 mm
02:39 -9.2 °C -10.3 °C 34262.9 hPa Calm     88 % 0 mm
02:44 -9.2 °C -10.3 °C 34262.9 hPa Calm     88 % 0 mm
02:49 -9.2 °C -10.3 °C 34262.9 hPa Calm     88 % 0 mm
02:54 -9.2 °C -10.3 °C 34262.9 hPa Calm     88 % 0 mm
02:59 -9.2 °C -10.2 °C 34262.9 hPa Calm     89 % 0 mm
03:04 -9.3 °C -10.3 °C 34262.9 hPa Calm     89 % 0 mm
03:09 -9.2 °C -10.3 °C 34262.9 hPa Calm     88 % 0 mm
03:14 -9.3 °C -10.3 °C 34262.9 hPa Calm     89 % 0 mm
03:19 -9.3 °C -10.3 °C 34262.9 hPa Calm     89 % 0 mm
03:24 -9.3 °C -10.3 °C 34262.9 hPa Calm     89 % 0 mm
03:29 -9.3 °C -10.3 °C 34262.9 hPa Calm     89 % 0 mm
03:34 -9.4 °C -10.4 °C 34262.9 hPa Calm     89 % 0 mm
03:39 -9.4 °C -10.4 °C 34262.9 hPa Calm     89 % 0 mm
03:44 -9.5 °C -10.6 °C 34229.1 hPa Calm     88 % 0 mm
03:49 -9.6 °C -10.7 °C 34229.1 hPa Calm     88 % 0 mm
03:54 -9.6 °C -10.7 °C 34229.1 hPa Calm     88 % 0 mm
03:59 -9.6 °C -10.6 °C 34262.9 hPa Calm     89 % 0 mm
04:04 -9.6 °C -10.6 °C 34262.9 hPa Calm     89 % 0 mm
04:09 -9.6 °C -10.6 °C 34262.9 hPa Calm     89 % 0 mm
04:14 -9.7 °C -10.8 °C 34262.9 hPa Calm     88 % 0 mm
04:19 -9.7 °C -10.8 °C 34262.9 hPa Calm     88 % 0 mm
04:24 -9.7 °C -10.8 °C 34262.9 hPa Calm     88 % 0 mm
04:29 -9.6 °C -10.7 °C 34262.9 hPa Calm     88 % 0 mm
04:34 -9.6 °C -10.6 °C 34262.9 hPa Calm     89 % 0 mm
04:39 -9.6 °C -10.6 °C 34262.9 hPa Calm     89 % 0 mm
04:44 -9.5 °C -10.5 °C 34262.9 hPa Calm     89 % 0 mm
04:49 -9.6 °C -10.6 °C 34262.9 hPa Calm     89 % 0 mm
04:54 -9.6 °C -10.6 °C 34262.9 hPa Calm     89 % 0 mm
04:59 -9.5 °C -10.5 °C 34262.9 hPa Calm     89 % 0 mm
05:04 -9.5 °C -10.5 °C 34262.9 hPa Calm     89 % 0 mm
05:09 -9.5 °C -10.5 °C 34262.9 hPa Calm     89 % 0 mm
05:14 -9.4 °C -10.4 °C 34262.9 hPa Calm     89 % 0 mm
05:19 -9.4 °C -10.6 °C 34262.9 hPa Calm     88 % 0 mm
05:24 -9.6 °C -10.7 °C 34262.9 hPa Calm     88 % 0 mm
05:29 -9.6 °C -10.7 °C 34229.1 hPa Calm     88 % 0 mm
05:34 -9.6 °C -10.7 °C 34229.1 hPa Calm     88 % 0 mm
05:39 -9.5 °C -10.5 °C 34229.1 hPa Calm     89 % 0 mm
05:44 -9.6 °C -10.6 °C 34262.9 hPa Calm     89 % 0 mm
05:49 -9.6 °C -10.6 °C 34262.9 hPa Calm     89 % 0 mm
05:54 -9.6 °C -10.6 °C 34262.9 hPa Calm     89 % 0 mm
05:59 -9.6 °C -10.6 °C 34229.1 hPa Calm     89 % 0 mm
06:04 -9.6 °C -10.6 °C 34229.1 hPa Calm     89 % 0 mm
06:09 -9.7 °C -10.7 °C 34229.1 hPa Calm     89 % 0 mm
06:14 -9.7 °C -10.7 °C 34229.1 hPa Calm     89 % 0 mm
06:19 -9.6 °C -10.6 °C 34229.1 hPa Calm     89 % 0 mm
06:24 -9.6 °C -10.6 °C 34229.1 hPa Calm     89 % 0 mm
06:29 -9.6 °C -10.6 °C 34262.9 hPa Calm     89 % 0 mm
06:34 -9.6 °C -10.6 °C 34262.9 hPa Calm     89 % 0 mm
06:39 -9.7 °C -10.8 °C 34262.9 hPa Calm     88 % 0 mm
06:44 -9.7 °C -10.8 °C 34229.1 hPa Calm     88 % 0 mm
06:49 -9.7 °C -10.8 °C 34229.1 hPa Calm     88 % 0 mm
06:54 -9.7 °C -10.8 °C 34229.1 hPa Calm     88 % 0 mm
06:59 -9.8 °C -10.9 °C 34262.9 hPa Calm     88 % 0 mm
07:04 -9.7 °C -10.8 °C 34262.9 hPa Calm     88 % 0 mm
07:09 -9.7 °C -10.8 °C 34262.9 hPa Calm     88 % 0 mm
07:14 -9.7 °C -10.8 °C 34262.9 hPa Calm     88 % 0 mm
07:19 -9.8 °C -10.9 °C 34262.9 hPa Calm     88 % 0 mm
07:24 -9.8 °C -10.9 °C 34262.9 hPa Calm     88 % 0 mm
07:29 -9.8 °C -10.9 °C 34262.9 hPa Calm     88 % 0 mm
07:34 -9.8 °C -10.9 °C 34262.9 hPa Calm     88 % 0 mm
07:39 -9.8 °C -10.9 °C 34262.9 hPa Calm     88 % 0 mm
07:44 -9.9 °C -11 °C 34229.1 hPa Calm     88 % 0 mm
07:49 -9.9 °C -11 °C 34229.1 hPa Calm     88 % 0 mm
07:54 -9.9 °C -11 °C 34229.1 hPa Calm     88 % 0 mm
07:59 -9.8 °C -10.9 °C 34229.1 hPa Calm     88 % 0 mm
08:04 -9.8 °C -10.9 °C 34229.1 hPa Calm     88 % 0 mm
08:09 -9.8 °C -10.9 °C 34229.1 hPa Calm     88 % 0 mm
08:14 -9.9 °C -11 °C 34262.9 hPa Calm     88 % 0 mm
08:19 -9.9 °C -11 °C 34262.9 hPa Calm     88 % 0 mm
08:24 -9.9 °C -11 °C 34262.9 hPa Calm     88 % 0 mm
08:29 -10 °C -11.1 °C 34262.9 hPa Calm     88 % 0 mm
08:34 -10 °C -11.1 °C 34262.9 hPa Calm     88 % 0 mm
08:39 -9.9 °C -11 °C 34262.9 hPa Calm     88 % 0 mm
08:44 -9.9 °C -11 °C 34262.9 hPa Calm     88 % 0 mm
08:49 -9.8 °C -10.8 °C 34262.9 hPa Calm     89 % 0 mm
08:54 -9.7 °C -10.7 °C 34262.9 hPa Calm     89 % 0 mm
08:59 -9.6 °C -10.6 °C 34262.9 hPa Calm     89 % 0 mm
09:04 -9.4 °C -10.6 °C 34262.9 hPa Calm     88 % 0 mm
09:09 -9.4 °C -10.6 °C 34262.9 hPa Calm     88 % 0 mm
09:14 -9.3 °C -10.4 °C 34229.1 hPa Calm     88 % 0 mm
09:19 -9.2 °C -10.4 °C 34229.1 hPa Calm     87 % 0 mm
09:24 -9.2 °C -10.4 °C 34229.1 hPa Calm     87 % 0 mm
09:29 -9.2 °C -10.4 °C 34262.9 hPa Calm     87 % 0 mm
09:34 -9.1 °C -10.4 °C 34262.9 hPa Calm     86 % 0 mm
09:39 -8.9 °C -10.2 °C 34262.9 hPa Calm     86 % 0 mm
09:44 -8.6 °C -9.9 °C 34262.9 hPa Calm     86 % 0 mm
09:49 -8.5 °C -9.9 °C 34262.9 hPa Calm     85 % 0 mm
09:54 -8.4 °C -9.9 °C 34262.9 hPa Calm     84 % 0 mm
09:59 -8.4 °C -9.9 °C 34262.9 hPa Calm     84 % 0 mm
10:04 -8.1 °C -9.7 °C 34262.9 hPa Calm     83 % 0 mm
10:09 -8.2 °C -9.9 °C 34262.9 hPa Calm     82 % 0 mm
10:14 -8.3 °C -10 °C 34262.9 hPa Calm     82 % 0 mm
10:19 -8.3 °C -10 °C 34262.9 hPa Calm     82 % 0 mm
10:24 -8.1 °C -9.8 °C 34262.9 hPa Calm     82 % 0 mm
10:29 -7.9 °C -9.7 °C 34262.9 hPa Calm     81 % 0 mm
10:34 -7.9 °C -9.9 °C 34262.9 hPa Calm     80 % 0 mm
10:39 -7.9 °C -9.9 °C 34262.9 hPa Calm     80 % 0 mm
10:44 -7.8 °C -9.9 °C 34262.9 hPa Calm     79 % 0 mm
10:49 -7.8 °C -9.9 °C 34262.9 hPa Calm     79 % 0 mm
10:54 -8 °C -10.1 °C 34262.9 hPa Calm     79 % 0 mm
10:59 -7.8 °C -9.8 °C 34262.9 hPa Calm     79 % 0 mm
11:04 -7.4 °C -9.5 °C 34262.9 hPa Calm     79 % 0 mm
11:09 -7.2 °C -9.5 °C 34262.9 hPa Calm     77 % 0 mm
11:14 -7.1 °C -9.5 °C 34262.9 hPa Calm     76 % 0 mm
11:19 -7.1 °C -9.5 °C 34262.9 hPa Calm     76 % 0 mm
11:24 -7.2 °C -9.7 °C 34262.9 hPa Calm     75 % 0 mm
11:29 -7.2 °C -9.8 °C 34262.9 hPa Calm     75 % 0 mm
11:34 -7.2 °C -9.8 °C 34262.9 hPa Calm     75 % 0 mm
11:39 -7.2 °C -9.8 °C 34262.9 hPa Calm     74 % 0 mm
11:44 -7.2 °C -9.8 °C 34262.9 hPa Calm     74 % 0 mm
11:49 -7.1 °C -9.8 °C 34262.9 hPa Calm     74 % 0 mm
11:54 -7.1 °C -9.7 °C 34262.9 hPa Calm     74 % 0 mm
11:59 -7.1 °C -9.8 °C 34262.9 hPa Calm     73 % 0 mm
12:04 -7 °C -9.8 °C 34262.9 hPa Calm     73 % 0 mm
12:09 -7.1 °C -9.8 °C 34262.9 hPa Calm     73 % 0 mm
12:14 -7.1 °C -9.8 °C 34262.9 hPa Calm     73 % 0 mm
12:19 -7.2 °C -9.9 °C 34262.9 hPa Calm     73 % 0 mm
12:24 -7.2 °C -9.9 °C 34262.9 hPa Calm     73 % 0 mm
12:29 -7.2 °C -9.9 °C 34262.9 hPa Calm     73 % 0 mm
12:34 -7.3 °C -9.8 °C 34262.9 hPa Calm     75 % 0 mm
12:39 -7.3 °C -9.8 °C 34262.9 hPa Calm     75 % 0 mm
12:44 -7.4 °C -9.9 °C 34262.9 hPa Calm     75 % 0 mm
12:49 -7.4 °C -9.9 °C 34262.9 hPa Calm     75 % 0 mm
12:54 -7.6 °C -9.9 °C 34262.9 hPa Calm     76 % 0 mm
12:59 -7.8 °C -10.1 °C 34296.8 hPa Calm     77 % 0 mm
13:04 -7.9 °C -10.1 °C 34296.8 hPa Calm     78 % 0 mm
13:09 -8 °C -10.2 °C 34296.8 hPa Calm     78 % 0 mm
13:14 -8.1 °C -10.2 °C 34296.8 hPa Calm     79 % 25.4 mm
13:19 -8.2 °C -10.1 °C 34296.8 hPa Calm     80 % 25.4 mm
13:24 -8.2 °C -10 °C 34296.8 hPa Calm     81 % 25.4 mm
13:29 -8.2 °C -10 °C 34262.9 hPa Calm     81 % 25.4 mm
13:34 -8.2 °C -9.9 °C 34262.9 hPa Calm     82 % 25.4 mm
13:39 -8.2 °C -9.8 °C 34262.9 hPa Calm     83 % 25.4 mm
13:44 -8.2 °C -9.8 °C 34262.9 hPa Calm     84 % 25.4 mm
13:49 -8.2 °C -9.8 °C 34262.9 hPa Calm     84 % 25.4 mm
13:54 -8.2 °C -9.6 °C 34262.9 hPa Calm     85 % 50.8 mm
13:59 -8.2 °C -9.6 °C 34262.9 hPa Calm     85 % 50.8 mm
14:04 -8.2 °C -9.6 °C 34262.9 hPa Calm     85 % 50.8 mm
14:09 -8.2 °C -9.5 °C 34262.9 hPa Calm     86 % 50.8 mm
14:14 -8.2 °C -9.5 °C 34262.9 hPa Calm     86 % 25.4 mm
14:19 -8.2 °C -9.5 °C 34262.9 hPa Calm     86 % 25.4 mm
Meteo Sesrovires
Elogis d' Weather Underground - 1.5 mb

Guio original per  Jim McMurry - jmcmurry@mwt.net Adaptat per a la plantilla per  Wim van der Kuil - Leuven-Template.eu

Trobareu la nostra informacio del temps tambe a:

Weather Underground

AWEKAS